createdAt,value
2018-08-11T00:00:15.250Z,72.20
2018-08-11T00:02:43.541Z,72.60
2018-08-11T00:05:11.841Z,72.70
2018-08-11T00:07:40.096Z,72.60
2018-08-11T00:10:08.965Z,72.50
2018-08-11T00:12:37.527Z,71.90
2018-08-11T00:15:08.089Z,71.20
2018-08-11T00:17:36.387Z,71.60
2018-08-11T00:20:07.592Z,72.60
2018-08-11T00:22:35.872Z,72.90
2018-08-11T00:25:04.764Z,73.00
2018-08-11T00:27:33.057Z,72.90
2018-08-11T00:30:02.852Z,72.90
2018-08-11T00:32:31.253Z,72.80
2018-08-11T00:35:00.367Z,72.80
2018-08-11T00:37:28.625Z,72.90
2018-08-11T00:39:56.898Z,72.40
2018-08-11T00:42:25.163Z,72.40
2018-08-11T00:44:53.424Z,72.20
2018-08-11T00:47:21.705Z,71.60
2018-08-11T00:49:49.953Z,71.30
2018-08-11T00:52:18.215Z,71.30
2018-08-11T00:54:46.479Z,71.70
2018-08-11T00:57:14.755Z,71.90
2018-08-11T00:59:43.017Z,72.40
2018-08-11T01:02:11.255Z,72.50
2018-08-11T01:04:39.483Z,72.90
2018-08-11T01:07:07.743Z,72.50
2018-08-11T01:09:35.933Z,72.40
2018-08-11T01:12:04.371Z,72.20
2018-08-11T01:14:32.671Z,72.00
2018-08-11T01:17:00.902Z,71.50
2018-08-11T01:19:29.135Z,71.00
2018-08-11T01:21:57.614Z,70.90
2018-08-11T01:24:25.877Z,71.00
2018-08-11T01:26:54.111Z,70.90
2018-08-11T01:29:22.408Z,70.40
2018-08-11T01:31:50.639Z,70.60
2018-08-11T01:34:18.878Z,70.80
2018-08-11T01:36:47.089Z,70.70
2018-08-11T01:39:15.468Z,70.90
2018-08-11T01:41:43.673Z,70.90
2018-08-11T01:44:11.927Z,71.00
2018-08-11T01:46:40.195Z,70.90
2018-08-11T01:49:08.395Z,71.20
2018-08-11T01:51:36.646Z,71.60
2018-08-11T01:54:04.923Z,71.80
2018-08-11T01:56:33.157Z,71.90
2018-08-11T01:59:01.382Z,72.00
2018-08-11T02:01:29.621Z,72.20
2018-08-11T02:03:57.838Z,72.60
2018-08-11T02:06:26.129Z,72.50
2018-08-11T02:08:54.691Z,72.80
2018-08-11T02:11:22.984Z,73.00
2018-08-11T02:13:51.204Z,73.80
2018-08-11T02:16:19.482Z,74.60
2018-08-11T02:18:47.762Z,74.90
2018-08-11T02:21:16.122Z,74.80
2018-08-11T02:23:44.434Z,74.60
2018-08-11T02:26:12.736Z,74.70
2018-08-11T02:28:41.021Z,74.10
2018-08-11T02:31:09.288Z,74.40
2018-08-11T02:33:37.502Z,74.30
2018-08-11T02:36:05.746Z,73.90
2018-08-11T02:38:34.018Z,74.30
2018-08-11T02:41:02.277Z,74.20
2018-08-11T02:43:30.673Z,74.00
2018-08-11T02:45:58.938Z,73.60
2018-08-11T02:48:27.261Z,73.60
2018-08-11T02:50:55.498Z,73.70
2018-08-11T02:53:23.748Z,73.60
2018-08-11T02:55:52.004Z,73.40
2018-08-11T02:58:20.239Z,73.60
2018-08-11T03:00:48.495Z,74.00
2018-08-11T03:03:16.763Z,73.90
2018-08-11T03:05:46.144Z,73.90
2018-08-11T03:08:14.366Z,73.80
2018-08-11T03:10:42.614Z,73.70
2018-08-11T03:13:10.880Z,73.30
2018-08-11T03:15:39.151Z,72.80
2018-08-11T03:18:07.361Z,73.10
2018-08-11T03:20:35.577Z,73.00
2018-08-11T03:23:03.830Z,72.70
2018-08-11T03:25:32.051Z,72.50
2018-08-11T03:28:00.251Z,72.50
2018-08-11T03:30:28.498Z,71.30
2018-08-11T03:32:56.696Z,71.20
2018-08-11T03:35:25.327Z,70.70
2018-08-11T03:37:53.565Z,70.50
2018-08-11T03:40:24.470Z,70.20
2018-08-11T03:42:52.886Z,69.50
2018-08-11T03:45:21.138Z,68.90
2018-08-11T03:47:49.362Z,68.60
2018-08-11T03:50:17.654Z,68.30
2018-08-11T03:52:45.850Z,68.10
2018-08-11T03:55:14.087Z,67.90
2018-08-11T03:57:42.347Z,67.90
2018-08-11T04:00:11.637Z,67.60
2018-08-11T04:02:39.999Z,67.30
2018-08-11T04:05:08.256Z,67.00
2018-08-11T04:07:36.486Z,66.70
2018-08-11T04:10:05.838Z,67.00
2018-08-11T04:12:34.041Z,66.80
2018-08-11T04:15:02.333Z,67.60
2018-08-11T04:17:36.716Z,67.80
2018-08-11T04:20:05.110Z,67.70
2018-08-11T04:22:33.379Z,67.90
2018-08-11T04:25:01.725Z,67.70
2018-08-11T04:27:29.963Z,67.50
2018-08-11T04:29:58.198Z,67.80
2018-08-11T04:32:26.803Z,67.80
2018-08-11T04:34:56.023Z,67.60
2018-08-11T04:37:24.339Z,67.50
2018-08-11T04:39:52.575Z,67.30
2018-08-11T04:42:21.036Z,67.00
2018-08-11T04:44:49.253Z,67.30
2018-08-11T04:47:17.569Z,67.80
2018-08-11T04:49:45.818Z,67.20
2018-08-11T04:52:14.049Z,66.80
2018-08-11T04:54:42.350Z,66.60
2018-08-11T04:57:10.614Z,66.30
2018-08-11T04:59:38.848Z,66.40
2018-08-11T05:02:07.225Z,66.30
2018-08-11T05:04:35.560Z,66.30
2018-08-11T05:07:03.811Z,66.20
2018-08-11T05:09:32.095Z,65.70
2018-08-11T05:12:00.308Z,65.70
2018-08-11T05:14:28.554Z,65.60
2018-08-11T05:16:56.811Z,66.10
2018-08-11T05:19:25.099Z,65.70
2018-08-11T05:21:53.431Z,65.00
2018-08-11T05:24:21.946Z,64.80
2018-08-11T05:26:50.183Z,64.40
2018-08-11T05:29:18.395Z,63.60
2018-08-11T05:31:46.614Z,63.10
2018-08-11T05:34:14.826Z,62.90
2018-08-11T05:36:43.076Z,62.50
2018-08-11T05:39:13.325Z,61.40
2018-08-11T05:41:41.605Z,60.70
2018-08-11T05:44:09.856Z,59.90
2018-08-11T05:46:38.739Z,59.40
2018-08-11T05:49:07.366Z,59.20
2018-08-11T05:51:35.589Z,58.20
2018-08-11T05:54:03.882Z,57.00
2018-08-11T05:56:32.097Z,55.30
2018-08-11T05:59:00.503Z,53.20
2018-08-11T06:01:28.952Z,52.70
2018-08-11T06:03:57.182Z,51.50
2018-08-11T06:06:25.373Z,51.40
2018-08-11T06:08:53.593Z,51.20
2018-08-11T06:11:21.793Z,50.80
2018-08-11T06:13:50.049Z,49.10
2018-08-11T06:16:18.298Z,47.80
2018-08-11T06:18:46.502Z,47.30
2018-08-11T06:21:14.761Z,45.60
2018-08-11T06:23:42.950Z,45.00
2018-08-11T06:26:11.222Z,43.80
2018-08-11T06:28:39.418Z,43.30
2018-08-11T06:31:07.751Z,41.90
2018-08-11T06:33:36.051Z,41.60
2018-08-11T06:36:04.409Z,40.70
2018-08-11T06:38:32.725Z,40.80
2018-08-11T06:41:01.201Z,39.20
2018-08-11T06:43:29.256Z,38.40
2018-08-11T06:45:57.511Z,37.40
2018-08-11T06:48:26.740Z,36.20
2018-08-11T06:50:55.059Z,35.90
2018-08-11T06:53:23.309Z,35.70
2018-08-11T06:55:51.702Z,36.10
2018-08-11T06:58:19.958Z,36.00
2018-08-11T07:00:48.188Z,36.00
2018-08-11T07:03:16.414Z,35.90
2018-08-11T07:05:44.661Z,35.80
2018-08-11T07:08:12.877Z,36.10
2018-08-11T07:10:41.090Z,36.10
2018-08-11T07:13:09.442Z,36.70
2018-08-11T07:15:37.687Z,37.00
2018-08-11T07:18:05.893Z,37.40
2018-08-11T07:20:34.143Z,36.40
2018-08-11T07:23:02.390Z,35.60
2018-08-11T07:25:30.640Z,36.10
2018-08-11T07:27:58.892Z,36.20
2018-08-11T07:30:27.139Z,37.10
2018-08-11T07:32:55.682Z,37.20
2018-08-11T07:35:23.931Z,38.30
2018-08-11T07:37:52.723Z,37.80
2018-08-11T07:40:21.687Z,37.20
2018-08-11T07:42:49.906Z,36.40
2018-08-11T07:45:18.140Z,35.50
2018-08-11T07:47:46.386Z,34.60
2018-08-11T07:50:14.710Z,34.20
2018-08-11T07:52:43.005Z,33.30
2018-08-11T07:55:11.314Z,33.50
2018-08-11T07:57:39.582Z,33.40
2018-08-11T08:00:12.005Z,32.50
2018-08-11T08:02:40.973Z,32.00
2018-08-11T08:05:09.286Z,31.10
2018-08-11T08:07:37.523Z,30.80
2018-08-11T08:10:06.670Z,30.70
2018-08-11T08:12:35.006Z,29.50
2018-08-11T08:15:03.277Z,29.60
2018-08-11T08:17:31.567Z,29.00
2018-08-11T08:19:59.830Z,28.30
2018-08-11T08:22:28.155Z,28.40
2018-08-11T08:24:56.441Z,28.80
2018-08-11T08:27:24.778Z,28.40
2018-08-11T08:29:53.339Z,28.10
2018-08-11T08:32:21.563Z,27.40
2018-08-11T08:34:49.839Z,26.60
2018-08-11T08:37:19.410Z,26.90
2018-08-11T08:39:47.621Z,27.00
2018-08-11T08:42:15.950Z,26.90
2018-08-11T08:44:44.318Z,26.90
2018-08-11T08:47:12.549Z,27.40
2018-08-11T08:49:40.776Z,26.60
2018-08-11T08:52:09.003Z,25.90
2018-08-11T08:54:37.222Z,24.80
2018-08-11T08:57:05.744Z,24.50
2018-08-11T08:59:33.982Z,24.20
2018-08-11T09:02:02.281Z,23.80
2018-08-11T09:04:30.483Z,23.80
2018-08-11T09:06:58.758Z,23.20
2018-08-11T09:09:27.057Z,23.40
2018-08-11T09:11:55.317Z,22.80
2018-08-11T09:14:23.637Z,22.40
2018-08-11T09:16:51.866Z,22.20
2018-08-11T09:19:20.138Z,21.70
2018-08-11T09:21:48.327Z,21.40
2018-08-11T09:24:16.586Z,21.80
2018-08-11T09:26:44.882Z,21.50
2018-08-11T09:29:13.142Z,21.40
2018-08-11T09:31:41.514Z,22.10
2018-08-11T09:34:09.795Z,22.10
2018-08-11T09:36:38.034Z,22.60
2018-08-11T09:39:10.664Z,22.10
2018-08-11T09:41:38.846Z,21.70
2018-08-11T09:44:07.627Z,21.70
2018-08-11T09:46:35.830Z,21.70
2018-08-11T09:49:04.283Z,22.20
2018-08-11T09:51:32.949Z,22.40
2018-08-11T09:54:01.225Z,22.50
2018-08-11T09:56:29.449Z,22.60
2018-08-11T09:58:57.646Z,21.90
2018-08-11T10:01:31.398Z,22.00
2018-08-11T10:03:59.633Z,22.20
2018-08-11T10:06:27.898Z,22.60
2018-08-11T10:08:56.175Z,22.70
2018-08-11T10:11:25.773Z,23.00
2018-08-11T10:13:54.205Z,22.70
2018-08-11T10:16:22.461Z,22.80
2018-08-11T10:18:50.766Z,22.60
2018-08-11T10:21:19.013Z,22.50
2018-08-11T10:23:47.321Z,22.00
2018-08-11T10:26:15.625Z,21.60
2018-08-11T10:28:43.863Z,21.90
2018-08-11T10:31:12.242Z,21.80
2018-08-11T10:33:40.500Z,21.30
2018-08-11T10:36:08.719Z,21.70
2018-08-11T10:38:36.994Z,22.00
2018-08-11T10:41:05.353Z,21.80
2018-08-11T10:43:34.451Z,22.20
2018-08-11T10:46:02.643Z,22.30
2018-08-11T10:48:30.870Z,22.40
2018-08-11T10:50:59.092Z,22.60
2018-08-11T10:53:27.685Z,22.10
2018-08-11T10:55:55.942Z,23.10
2018-08-11T10:58:24.907Z,22.00
2018-08-11T11:00:53.118Z,22.10
2018-08-11T11:03:21.331Z,22.80
2018-08-11T11:05:49.574Z,22.80
2018-08-11T11:08:17.847Z,23.60
2018-08-11T11:10:46.034Z,23.60
2018-08-11T11:13:14.315Z,23.40
2018-08-11T11:15:42.673Z,23.60
2018-08-11T11:18:10.970Z,23.70
2018-08-11T11:20:39.246Z,23.60
2018-08-11T11:23:07.549Z,23.80
2018-08-11T11:25:35.775Z,24.10
2018-08-11T11:28:03.954Z,23.90
2018-08-11T11:30:32.187Z,23.70
2018-08-11T11:33:00.460Z,23.30
2018-08-11T11:35:28.965Z,23.40
2018-08-11T11:37:57.226Z,23.70
2018-08-11T11:40:25.482Z,24.00
2018-08-11T11:42:53.725Z,24.00
2018-08-11T11:45:22.077Z,23.40
2018-08-11T11:47:50.281Z,23.70
2018-08-11T11:50:18.496Z,23.30
2018-08-11T11:52:46.752Z,23.10
2018-08-11T11:55:14.934Z,23.50
2018-08-11T11:57:43.256Z,23.50
2018-08-11T12:00:12.074Z,23.30
2018-08-11T12:02:40.337Z,22.90
2018-08-11T12:05:08.506Z,23.00
2018-08-11T12:07:36.818Z,22.70
2018-08-11T12:10:05.174Z,22.00
2018-08-11T12:12:33.397Z,21.80
2018-08-11T12:15:01.710Z,22.10
2018-08-11T12:17:29.910Z,21.70
2018-08-11T12:19:58.227Z,21.10
2018-08-11T12:22:26.501Z,21.20
2018-08-11T12:24:54.774Z,21.30
2018-08-11T12:27:23.097Z,21.30
2018-08-11T12:29:51.493Z,21.30
2018-08-11T12:32:19.711Z,21.00
2018-08-11T12:34:47.965Z,21.60
2018-08-11T12:37:16.234Z,21.30
2018-08-11T12:39:44.442Z,21.50
2018-08-11T12:42:12.868Z,20.80
2018-08-11T12:44:41.178Z,21.00
2018-08-11T12:47:09.443Z,20.70
2018-08-11T12:49:37.765Z,21.10
2018-08-11T12:52:06.248Z,21.00
2018-08-11T12:54:34.613Z,21.50
2018-08-11T12:57:02.962Z,21.30
2018-08-11T12:59:31.287Z,21.50
2018-08-11T13:01:59.530Z,21.70
2018-08-11T13:04:27.759Z,22.00
2018-08-11T13:06:56.049Z,22.20
2018-08-11T13:09:25.543Z,22.10
2018-08-11T13:11:54.609Z,22.00
2018-08-11T13:14:22.905Z,22.10
2018-08-11T13:16:51.170Z,22.50
2018-08-11T13:19:19.423Z,21.80
2018-08-11T13:21:47.865Z,22.00
2018-08-11T13:24:16.172Z,22.20
2018-08-11T13:26:44.419Z,22.40
2018-08-11T13:29:12.771Z,22.10
2018-08-11T13:31:41.011Z,22.00
2018-08-11T13:34:09.532Z,21.90
2018-08-11T13:36:37.762Z,22.00
2018-08-11T13:39:08.258Z,22.00
2018-08-11T13:41:46.439Z,22.10
2018-08-11T13:44:15.714Z,22.10
2018-08-11T13:46:43.988Z,21.70
2018-08-11T13:49:12.242Z,22.30
2018-08-11T13:51:40.522Z,21.80
2018-08-11T13:54:08.781Z,22.00
2018-08-11T13:56:37.961Z,22.20
2018-08-11T13:59:06.231Z,22.10
2018-08-11T14:01:34.553Z,21.60
2018-08-11T14:04:02.788Z,21.40
2018-08-11T14:06:31.088Z,21.40
2018-08-11T14:08:59.398Z,21.40
2018-08-11T14:11:27.664Z,21.50
2018-08-11T14:13:55.909Z,21.60
2018-08-11T14:16:24.201Z,21.50
2018-08-11T14:18:52.482Z,21.40
2018-08-11T14:21:20.723Z,20.70
2018-08-11T14:23:49.053Z,20.70
2018-08-11T14:26:17.298Z,20.70
2018-08-11T14:28:45.680Z,20.10
2018-08-11T14:31:13.950Z,20.00
2018-08-11T14:33:42.243Z,19.60
2018-08-11T14:36:10.481Z,19.90
2018-08-11T14:38:38.700Z,20.00
2018-08-11T14:41:06.936Z,20.00
2018-08-11T14:43:35.717Z,20.30
2018-08-11T14:46:03.915Z,20.70
2018-08-11T14:51:06.749Z,19.90
2018-08-11T14:53:35.327Z,20.30
2018-08-11T14:56:03.662Z,20.40
2018-08-11T14:58:32.035Z,20.60
2018-08-11T15:01:00.285Z,20.80
2018-08-11T15:03:29.167Z,21.00
2018-08-11T15:05:57.377Z,21.00
2018-08-11T15:08:25.714Z,20.90
2018-08-11T15:10:53.918Z,20.90
2018-08-11T15:13:22.141Z,20.80
2018-08-11T15:15:51.837Z,20.60
2018-08-11T15:18:20.003Z,20.70
2018-08-11T15:20:48.202Z,21.20
2018-08-11T15:23:16.708Z,20.90
2018-08-11T15:25:44.909Z,20.80
2018-08-11T15:28:13.156Z,20.90
2018-08-11T15:30:41.386Z,20.90
2018-08-11T15:33:09.675Z,20.60
2018-08-11T15:35:37.854Z,20.80
2018-08-11T15:38:06.107Z,20.60
2018-08-11T15:40:34.296Z,20.00
2018-08-11T15:43:02.536Z,20.80
2018-08-11T15:45:30.726Z,19.50
2018-08-11T15:47:58.932Z,19.40
2018-08-11T15:50:27.194Z,19.60
2018-08-11T15:52:55.407Z,19.80
2018-08-11T15:55:23.653Z,19.60
2018-08-11T15:57:51.929Z,19.80
2018-08-11T16:00:20.155Z,19.80
2018-08-11T16:02:48.633Z,19.50
2018-08-11T16:05:16.896Z,19.50
2018-08-11T16:07:45.091Z,19.50
2018-08-11T16:10:13.338Z,19.90
2018-08-11T16:12:41.638Z,19.90
2018-08-11T16:15:11.487Z,19.80
2018-08-11T16:17:39.710Z,19.80
2018-08-11T16:20:07.998Z,19.90
2018-08-11T16:22:36.305Z,20.10
2018-08-11T16:25:04.756Z,20.10
2018-08-11T16:27:33.042Z,20.00
2018-08-11T16:30:01.243Z,19.60
2018-08-11T16:32:29.517Z,18.80
2018-08-11T16:34:57.757Z,18.70
2018-08-11T16:37:25.999Z,18.70
2018-08-11T16:39:54.262Z,18.50
2018-08-11T16:42:22.501Z,18.80
2018-08-11T16:44:50.716Z,18.90
2018-08-11T16:47:18.944Z,19.10
2018-08-11T16:49:47.319Z,19.00
2018-08-11T16:52:15.621Z,19.30
2018-08-11T16:54:43.821Z,19.20
2018-08-11T16:57:12.174Z,19.60
2018-08-11T16:59:40.467Z,19.20
2018-08-11T17:02:08.791Z,19.70
2018-08-11T17:04:36.981Z,19.60
2018-08-11T17:07:05.302Z,19.60
2018-08-11T17:09:33.628Z,19.60
2018-08-11T17:12:02.111Z,19.90
2018-08-11T17:14:30.377Z,19.90
2018-08-11T17:16:58.572Z,19.70
2018-08-11T17:19:26.855Z,19.60
2018-08-11T17:21:55.199Z,19.50
2018-08-11T17:24:23.414Z,19.70
2018-08-11T17:26:51.624Z,19.20
2018-08-11T17:29:20.041Z,18.90
2018-08-11T17:31:48.315Z,19.00
2018-08-11T17:34:16.559Z,19.20
2018-08-11T17:36:44.886Z,19.30
2018-08-11T17:39:13.256Z,19.50
2018-08-11T17:41:41.740Z,19.20
2018-08-11T17:44:10.114Z,19.60
2018-08-11T17:46:38.370Z,19.60
2018-08-11T17:49:06.601Z,19.60
2018-08-11T17:51:35.392Z,19.80
2018-08-11T17:54:03.678Z,19.60
2018-08-11T17:56:31.994Z,19.80
2018-08-11T17:59:00.308Z,19.90
2018-08-11T18:01:28.577Z,19.90
2018-08-11T18:03:56.829Z,20.00
2018-08-11T18:06:25.104Z,20.10
2018-08-11T18:08:53.355Z,19.90
2018-08-11T18:11:21.601Z,20.00
2018-08-11T18:13:49.844Z,20.00
2018-08-11T18:16:18.156Z,20.10
2018-08-11T18:18:46.431Z,20.30
2018-08-11T18:21:14.723Z,20.60
2018-08-11T18:23:42.976Z,20.50
2018-08-11T18:26:11.276Z,21.20
2018-08-11T18:28:39.538Z,21.30
2018-08-11T18:31:07.814Z,21.00
2018-08-11T18:33:36.099Z,21.30
2018-08-11T18:36:04.472Z,21.50
2018-08-11T18:38:32.921Z,22.00
2018-08-11T18:41:01.301Z,21.90
2018-08-11T18:43:30.663Z,21.90
2018-08-11T18:45:58.999Z,21.90
2018-08-11T18:48:27.271Z,22.00
2018-08-11T18:50:55.574Z,22.40
2018-08-11T18:53:23.821Z,22.60
2018-08-11T18:55:52.148Z,22.70
2018-08-11T18:58:20.684Z,23.20
2018-08-11T19:00:49.001Z,23.40
2018-08-11T19:03:17.283Z,23.20
2018-08-11T19:05:45.574Z,23.80
2018-08-11T19:08:13.812Z,23.50
2018-08-11T19:10:42.144Z,23.50
2018-08-11T19:13:10.522Z,23.60
2018-08-11T19:15:38.670Z,23.90
2018-08-11T19:18:07.515Z,24.10
2018-08-11T19:20:35.787Z,24.40
2018-08-11T19:23:04.100Z,25.00
2018-08-11T19:25:32.428Z,25.70
2018-08-11T19:28:00.762Z,26.00
2018-08-11T19:30:29.073Z,26.50
2018-08-11T19:32:58.439Z,26.80
2018-08-11T19:35:26.707Z,27.20
2018-08-11T19:37:54.994Z,27.80
2018-08-11T19:40:23.239Z,27.80
2018-08-11T19:42:51.563Z,28.00
2018-08-11T19:45:19.962Z,28.40
2018-08-11T19:47:48.200Z,28.80
2018-08-11T19:50:16.464Z,29.10
2018-08-11T19:52:44.703Z,29.40
2018-08-11T19:55:12.986Z,29.60
2018-08-11T19:57:42.331Z,29.90
2018-08-11T20:00:12.859Z,30.00
2018-08-11T20:02:42.561Z,30.00
2018-08-11T20:05:11.422Z,30.00
2018-08-11T20:07:40.455Z,29.90
2018-08-11T20:10:08.838Z,29.40
2018-08-11T20:12:37.773Z,29.50
2018-08-11T20:15:07.274Z,29.30
2018-08-11T20:17:35.594Z,29.90
2018-08-11T20:20:04.787Z,29.60
2018-08-11T20:22:33.103Z,30.00
2018-08-11T20:25:01.363Z,29.90
2018-08-11T20:27:29.633Z,30.00
2018-08-11T20:29:57.895Z,30.20
2018-08-11T20:32:26.186Z,30.30
2018-08-11T20:34:54.466Z,30.70
2018-08-11T20:37:22.715Z,30.90
2018-08-11T20:39:51.037Z,31.20
2018-08-11T20:42:19.271Z,31.60
2018-08-11T20:44:47.547Z,32.50
2018-08-11T20:47:15.882Z,33.00
2018-08-11T20:49:44.325Z,33.20
2018-08-11T20:52:12.617Z,33.70
2018-08-11T20:54:41.006Z,33.90
2018-08-11T20:57:09.279Z,34.40
2018-08-11T20:59:37.557Z,34.90
2018-08-11T21:02:06.541Z,35.30
2018-08-11T21:04:34.816Z,35.60
2018-08-11T21:07:03.094Z,35.90
2018-08-11T21:09:31.347Z,36.00
2018-08-11T21:11:59.612Z,36.30
2018-08-11T21:14:27.901Z,36.40
2018-08-11T21:16:56.180Z,36.90
2018-08-11T21:19:24.493Z,37.30
2018-08-11T21:21:52.729Z,37.50
2018-08-11T21:24:21.005Z,37.70
2018-08-11T21:26:49.217Z,38.10
2018-08-11T21:29:17.436Z,38.40
2018-08-11T21:31:45.671Z,39.00
2018-08-11T21:34:13.886Z,39.30
2018-08-11T21:36:42.182Z,39.70
2018-08-11T21:39:13.132Z,39.80
2018-08-11T21:41:41.446Z,40.30
2018-08-11T21:44:09.711Z,40.70
2018-08-11T21:46:38.468Z,40.20
2018-08-11T21:49:07.851Z,40.60
2018-08-11T21:51:36.037Z,40.60
2018-08-11T21:54:04.352Z,40.60
2018-08-11T21:56:32.685Z,40.60
2018-08-11T21:59:00.952Z,40.70
2018-08-11T22:01:29.177Z,40.60
2018-08-11T22:03:57.554Z,40.60
2018-08-11T22:06:25.885Z,40.90
2018-08-11T22:08:54.103Z,41.10
2018-08-11T22:11:22.363Z,41.20
2018-08-11T22:13:50.606Z,41.50
2018-08-11T22:16:18.845Z,41.40
2018-08-11T22:18:47.155Z,41.70
2018-08-11T22:21:15.553Z,41.40
2018-08-11T22:23:43.768Z,41.40
2018-08-11T22:26:12.105Z,41.60
2018-08-11T22:28:40.660Z,41.40
2018-08-11T22:31:08.914Z,41.40
2018-08-11T22:33:37.183Z,41.50
2018-08-11T22:36:05.490Z,41.00
2018-08-11T22:38:33.748Z,39.90
2018-08-11T22:41:01.988Z,39.90
2018-08-11T22:43:30.325Z,40.10
2018-08-11T22:45:58.634Z,40.10
2018-08-11T22:48:26.951Z,40.30
2018-08-11T22:50:55.184Z,40.20
2018-08-11T22:53:23.400Z,40.30
2018-08-11T22:55:51.666Z,40.40
2018-08-11T22:58:19.929Z,40.60
2018-08-11T23:00:48.242Z,40.70
2018-08-11T23:03:16.537Z,40.60
2018-08-11T23:05:44.802Z,41.30
2018-08-11T23:08:13.022Z,41.80
2018-08-11T23:10:41.286Z,42.90
2018-08-11T23:13:09.603Z,44.10
2018-08-11T23:15:37.854Z,44.90
2018-08-11T23:18:06.140Z,45.20
2018-08-11T23:20:34.397Z,45.50
2018-08-11T23:23:02.684Z,46.10
2018-08-11T23:25:30.918Z,45.40
2018-08-11T23:27:59.194Z,45.20
2018-08-11T23:30:27.396Z,45.20
2018-08-11T23:32:55.626Z,45.40
2018-08-11T23:35:23.852Z,45.50
2018-08-11T23:37:52.088Z,45.50
2018-08-11T23:40:20.326Z,45.20
2018-08-11T23:42:48.621Z,45.00
2018-08-11T23:45:17.035Z,45.10
2018-08-11T23:47:45.238Z,45.10
2018-08-11T23:50:14.376Z,45.10
2018-08-11T23:52:43.400Z,45.30
2018-08-11T23:55:12.773Z,45.50
2018-08-11T23:57:41.071Z,45.60
